Time;durP1;ratioP1;P1;durP2;ratioP2;P2;SDS_P1;SDS_P2;PMS_P1;PMS_P2;Temp;Humidity;BMP_temperature;BMP_pressure;BME280_temperature;BME280_humidity;BME280_pressure;Samples;Min_cycle;Max_cycle;Signal;HPM_P1;HPM_P2
2022/03/12 00:00:43;;;;;;;;;;;21.90;44.80;;;;;;6328740;27;20054;-54
2022/03/12 00:03:47;;;;;;;;;;;21.70;44.70;;;;;;6324609;27;20399;-54
2022/03/12 00:06:49;;;;;;;;;;;22.10;44.70;;;;;;6330426;27;19927;-53
2022/03/12 00:09:50;;;;;;;;;;;21.70;44.80;;;;;;6327739;27;19932;-55
2022/03/12 00:12:53;;;;;;;;;;;21.80;44.80;;;;;;6310689;27;20800;-54
2022/03/12 00:15:56;;;;;;;;;;;22.00;45.00;;;;;;6326804;27;20099;-53
2022/03/12 00:19:00;;;;;;;;;;;21.70;44.80;;;;;;6328432;27;19931;-55
2022/03/12 00:22:04;;;;;;;;;;;21.60;44.80;;;;;;6316734;27;19934;-55
2022/03/12 00:25:10;;;;;;;;;;;21.80;44.60;;;;;;6325661;27;19959;-50
2022/03/12 00:28:12;;;;;;;;;;;22.10;44.50;;;;;;6327423;27;20043;-55
2022/03/12 00:31:14;;;;;;;;;;;22.00;45.00;;;;;;6324598;27;19923;-55
2022/03/12 00:34:17;;;;;;;;;;;21.60;44.80;;;;;;6329103;27;19931;-55
2022/03/12 00:37:21;;;;;;;;;;;21.70;44.90;;;;;;6328055;27;19930;-53
2022/03/12 00:40:24;;;;;;;;;;;21.80;45.10;;;;;;6330673;27;19986;-55
2022/03/12 00:43:25;;;;;;;;;;;21.60;44.80;;;;;;6323774;27;20945;-55
2022/03/12 00:46:27;;;;;;;;;;;21.60;44.80;;;;;;6325057;27;19973;-52
2022/03/12 00:49:30;;;;;;;;;;;22.10;45.00;;;;;;6320267;27;20788;-51
2022/03/12 00:52:32;;;;;;;;;;;21.70;44.80;;;;;;6327153;27;21314;-55
2022/03/12 00:55:34;;;;;;;;;;;21.80;44.80;;;;;;6326500;27;19936;-52
2022/03/12 00:58:36;;;;;;;;;;;21.70;44.80;;;;;;6328592;27;19923;-53
2022/03/12 01:01:37;;;;;;;;;;;21.50;44.60;;;;;;6327013;27;19931;-57
2022/03/12 01:04:40;;;;;;;;;;;21.80;44.90;;;;;;6316650;27;20704;-53
2022/03/12 01:07:41;;;;;;;;;;;22.30;45.30;;;;;;6329654;27;19934;-51
2022/03/12 01:10:44;;;;;;;;;;;21.60;44.90;;;;;;6325139;27;20124;-52
2022/03/12 01:13:45;;;;;;;;;;;21.30;44.70;;;;;;6332597;27;19981;-55
2022/03/12 01:16:47;;;;;;;;;;;21.60;45.00;;;;;;6330352;27;19927;-56
2022/03/12 01:19:49;;;;;;;;;;;21.90;44.90;;;;;;6332875;27;20721;-55
2022/03/12 01:22:50;;;;;;;;;;;21.80;44.90;;;;;;6332880;27;20736;-53
2022/03/12 01:25:52;;;;;;;;;;;21.80;44.90;;;;;;6327755;27;20437;-56
2022/03/12 01:28:54;;;;;;;;;;;21.80;44.70;;;;;;6330552;27;19934;-53
2022/03/12 01:31:55;;;;;;;;;;;21.70;44.80;;;;;;6311028;27;20919;-55
2022/03/12 01:34:57;;;;;;;;;;;21.40;44.80;;;;;;6335401;27;19923;-53
2022/03/12 01:37:59;;;;;;;;;;;21.70;44.90;;;;;;6333374;27;19931;-52
2022/03/12 01:41:03;;;;;;;;;;;21.60;44.90;;;;;;6333983;27;19923;-55
2022/03/12 01:44:05;;;;;;;;;;;21.70;45.00;;;;;;6315685;27;19923;-57
2022/03/12 01:47:08;;;;;;;;;;;21.90;45.10;;;;;;6329820;27;20046;-55
2022/03/12 01:50:10;;;;;;;;;;;21.40;44.80;;;;;;6331752;27;19923;-56
2022/03/12 01:53:12;;;;;;;;;;;21.50;44.90;;;;;;6332477;27;20000;-55
2022/03/12 01:56:14;;;;;;;;;;;21.60;44.60;;;;;;6326013;27;20023;-56
2022/03/12 01:59:16;;;;;;;;;;;21.80;44.90;;;;;;6328948;27;20038;-54
2022/03/12 02:02:17;;;;;;;;;;;21.80;44.90;;;;;;6310773;27;19952;-54
2022/03/12 02:05:20;;;;;;;;;;;22.00;44.90;;;;;;6331646;27;19927;-53
2022/03/12 02:08:21;;;;;;;;;;;21.70;44.90;;;;;;6331298;27;19931;-53
2022/03/12 02:11:27;;;;;;;;;;;21.90;44.50;;;;;;6334112;27;20608;-55
2022/03/12 02:14:28;;;;;;;;;;;21.60;44.80;;;;;;6316951;27;20889;-52
2022/03/12 02:17:30;;;;;;;;;;;21.60;44.90;;;;;;6322080;27;20099;-55
2022/03/12 02:20:32;;;;;;;;;;;21.40;44.80;;;;;;6326844;27;20033;-52
2022/03/12 02:23:48;;;;;;;;;;;21.40;44.60;;;;;;6325518;27;20367;-54
2022/03/12 02:26:51;;;;;;;;;;;21.80;44.90;;;;;;6309076;27;20057;-54
2022/03/12 02:29:52;;;;;;;;;;;21.60;44.60;;;;;;6323710;27;19988;-56
2022/03/12 02:33:00;;;;;;;;;;;21.40;44.60;;;;;;6304623;27;20281;-54
2022/03/12 02:36:04;;;;;;;;;;;21.60;44.80;;;;;;6320488;27;20201;-55
2022/03/12 02:39:05;;;;;;;;;;;21.70;45.00;;;;;;6324188;27;19975;-56
2022/03/12 02:42:09;;;;;;;;;;;21.70;44.90;;;;;;6326197;27;20154;-52
2022/03/12 02:45:11;;;;;;;;;;;21.80;44.90;;;;;;6326366;27;19974;-55
2022/03/12 02:48:12;;;;;;;;;;;21.60;44.90;;;;;;6319032;27;20750;-53
2022/03/12 02:51:15;;;;;;;;;;;21.50;45.00;;;;;;6320032;27;19927;-51
2022/03/12 02:54:16;;;;;;;;;;;21.40;44.80;;;;;;6322988;27;20042;-53
2022/03/12 02:57:22;;;;;;;;;;;21.30;44.70;;;;;;6321293;27;20722;-53
2022/03/12 03:00:24;;;;;;;;;;;22.00;45.10;;;;;;6320614;27;19934;-54
2022/03/12 03:03:26;;;;;;;;;;;21.80;45.00;;;;;;6323667;27;20091;-54
2022/03/12 03:06:27;;;;;;;;;;;21.30;44.70;;;;;;6324001;27;19927;-54
2022/03/12 03:09:29;;;;;;;;;;;21.60;44.90;;;;;;6326843;27;20051;-52
2022/03/12 03:12:31;;;;;;;;;;;21.30;44.80;;;;;;6325990;27;21307;-55
2022/03/12 03:15:37;;;;;;;;;;;21.80;45.00;;;;;;6329971;27;20235;-53
2022/03/12 03:18:40;;;;;;;;;;;21.70;44.90;;;;;;6326153;27;20501;-56
2022/03/12 03:21:42;;;;;;;;;;;21.60;44.80;;;;;;6321616;27;20043;-51
2022/03/12 03:24:43;;;;;;;;;;;21.30;44.70;;;;;;6324018;27;20368;-54
2022/03/12 03:27:47;;;;;;;;;;;21.20;44.60;;;;;;6322428;27;20488;-54
2022/03/12 03:30:50;;;;;;;;;;;22.00;45.10;;;;;;6323654;27;20284;-53
2022/03/12 03:33:51;;;;;;;;;;;21.60;45.00;;;;;;6323067;27;20513;-54
2022/03/12 03:36:55;;;;;;;;;;;21.60;45.00;;;;;;6323522;27;19927;-54
2022/03/12 03:39:56;;;;;;;;;;;21.80;45.00;;;;;;6323099;27;20199;-54
2022/03/12 03:42:58;;;;;;;;;;;21.30;44.80;;;;;;6326079;27;20388;-52
2022/03/12 03:45:59;;;;;;;;;;;21.50;44.80;;;;;;6330638;27;20325;-55
2022/03/12 03:49:04;;;;;;;;;;;21.40;44.80;;;;;;6321264;27;20466;-52
2022/03/12 03:52:07;;;;;;;;;;;21.30;44.80;;;;;;6327281;27;20356;-52
2022/03/12 03:55:09;;;;;;;;;;;21.60;45.00;;;;;;6323995;27;20130;-53
2022/03/12 03:58:12;;;;;;;;;;;21.50;44.90;;;;;;6324560;27;19989;-51
2022/03/12 04:01:15;;;;;;;;;;;21.50;44.40;;;;;;6324348;27;19934;-54
2022/03/12 04:04:18;;;;;;;;;;;21.30;44.70;;;;;;6323903;27;19930;-54
2022/03/12 04:07:19;;;;;;;;;;;21.40;44.80;;;;;;6327818;27;20049;-55
2022/03/12 04:10:20;;;;;;;;;;;21.20;44.50;;;;;;6324948;27;20285;-52
2022/03/12 04:13:22;;;;;;;;;;;21.40;45.00;;;;;;6330700;27;19974;-52
2022/03/12 04:16:24;;;;;;;;;;;21.60;44.60;;;;;;6326927;27;20054;-53
2022/03/12 04:19:29;;;;;;;;;;;21.20;44.70;;;;;;6326009;27;20099;-54
2022/03/12 04:22:31;;;;;;;;;;;21.30;44.70;;;;;;6321430;27;20164;-51
2022/03/12 04:25:32;;;;;;;;;;;21.60;44.80;;;;;;6326194;27;20282;-55
2022/03/12 04:28:34;;;;;;;;;;;21.80;44.80;;;;;;6330955;27;20489;-54
2022/03/12 04:31:36;;;;;;;;;;;21.60;44.90;;;;;;6324165;27;20357;-54
2022/03/12 04:34:37;;;;;;;;;;;21.10;44.70;;;;;;6326915;27;20395;-51
2022/03/12 04:37:39;;;;;;;;;;;21.50;45.00;;;;;;6326730;27;20049;-51
2022/03/12 04:40:42;;;;;;;;;;;21.50;45.00;;;;;;6309379;27;20120;-56
2022/03/12 04:43:45;;;;;;;;;;;21.20;44.70;;;;;;6306508;27;20273;-56
2022/03/12 04:46:47;;;;;;;;;;;21.50;44.90;;;;;;6326582;27;19927;-53
2022/03/12 04:49:49;;;;;;;;;;;21.50;44.80;;;;;;6317067;27;20515;-54
2022/03/12 04:52:51;;;;;;;;;;;21.80;45.10;;;;;;6328485;27;20041;-57
2022/03/12 04:55:55;;;;;;;;;;;21.10;44.60;;;;;;6307917;27;19996;-51
2022/03/12 04:58:57;;;;;;;;;;;21.60;45.00;;;;;;6326753;27;19928;-51
2022/03/12 05:01:59;;;;;;;;;;;21.90;45.10;;;;;;6322507;27;19931;-52
2022/03/12 05:05:00;;;;;;;;;;;21.30;44.30;;;;;;6325041;27;20683;-53
2022/03/12 05:08:02;;;;;;;;;;;21.10;44.80;;;;;;6325574;27;20311;-56
2022/03/12 05:11:04;;;;;;;;;;;21.40;44.80;;;;;;6327642;27;20276;-50
2022/03/12 05:14:10;;;;;;;;;;;21.60;44.40;;;;;;6326769;27;19978;-56
2022/03/12 05:17:14;;;;;;;;;;;21.10;44.80;;;;;;6321784;27;20715;-55
2022/03/12 05:20:18;;;;;;;;;;;21.20;44.80;;;;;;6320067;27;20327;-52
2022/03/12 05:23:20;;;;;;;;;;;21.50;44.90;;;;;;6298044;27;20062;-54
2022/03/12 05:26:23;;;;;;;;;;;21.00;44.60;;;;;;6298724;27;20787;-54
2022/03/12 05:29:25;;;;;;;;;;;21.30;44.80;;;;;;6321612;27;20788;-53
2022/03/12 05:32:26;;;;;;;;;;;22.00;45.00;;;;;;6319348;27;19973;-50
2022/03/12 05:35:28;;;;;;;;;;;21.70;45.10;;;;;;6319337;27;20253;-53
2022/03/12 05:38:31;;;;;;;;;;;21.40;45.00;;;;;;6319023;27;20859;-55
2022/03/12 05:41:34;;;;;;;;;;;21.40;44.80;;;;;;6322201;27;20335;-53
2022/03/12 05:44:36;;;;;;;;;;;21.40;45.00;;;;;;6319263;27;20089;-51
2022/03/12 05:47:38;;;;;;;;;;;21.40;44.80;;;;;;6318133;27;20206;-54
2022/03/12 05:50:40;;;;;;;;;;;21.30;44.70;;;;;;6323084;27;20360;-54
2022/03/12 05:53:43;;;;;;;;;;;21.30;44.80;;;;;;6318388;27;19931;-53
2022/03/12 05:56:45;;;;;;;;;;;21.70;45.00;;;;;;6321738;27;20192;-52
2022/03/12 05:59:50;;;;;;;;;;;21.50;45.00;;;;;;6320185;27;20664;-53
2022/03/12 06:02:52;;;;;;;;;;;21.50;44.50;;;;;;6319094;27;19962;-51
2022/03/12 06:05:59;;;;;;;;;;;21.40;45.10;;;;;;6321961;27;20733;-53
2022/03/12 06:09:00;;;;;;;;;;;21.20;44.90;;;;;;6320985;27;19931;-53
2022/03/12 06:12:02;;;;;;;;;;;21.40;45.10;;;;;;6321642;27;20337;-52
2022/03/12 06:15:05;;;;;;;;;;;21.20;44.90;;;;;;6321988;27;20729;-50
2022/03/12 06:18:07;;;;;;;;;;;21.10;44.80;;;;;;6317982;27;20289;-53
2022/03/12 06:21:08;;;;;;;;;;;21.00;44.80;;;;;;6305447;27;19926;-56
2022/03/12 06:24:10;;;;;;;;;;;21.00;44.90;;;;;;6320534;27;20821;-55
2022/03/12 06:27:11;;;;;;;;;;;21.60;45.20;;;;;;6321541;27;20756;-53
2022/03/12 06:30:16;;;;;;;;;;;21.70;45.10;;;;;;6321871;27;19935;-53
2022/03/12 06:33:19;;;;;;;;;;;21.30;44.80;;;;;;6320450;27;20165;-51
2022/03/12 06:36:22;;;;;;;;;;;21.10;45.00;;;;;;6322461;27;20031;-55
2022/03/12 06:39:23;;;;;;;;;;;20.90;44.80;;;;;;6299385;27;20217;-53
2022/03/12 06:42:33;;;;;;;;;;;21.30;45.10;;;;;;6306806;27;19953;-54
2022/03/12 06:45:35;;;;;;;;;;;21.30;45.10;;;;;;6301626;27;20236;-54
2022/03/12 06:48:37;;;;;;;;;;;21.50;45.20;;;;;;6300730;27;20271;-55
2022/03/12 06:51:38;;;;;;;;;;;21.20;45.00;;;;;;6322072;27;19927;-55
2022/03/12 06:54:40;;;;;;;;;;;20.90;44.90;;;;;;6320921;27;20097;-54
2022/03/12 06:57:41;;;;;;;;;;;21.00;45.00;;;;;;6317594;27;20345;-54
2022/03/12 07:00:45;;;;;;;;;;;20.90;44.80;;;;;;6318562;27;19931;-57
2022/03/12 07:03:47;;;;;;;;;;;21.70;45.20;;;;;;6302753;27;20335;-54
2022/03/12 07:06:49;;;;;;;;;;;21.10;44.70;;;;;;6315596;27;20234;-53
2022/03/12 07:09:50;;;;;;;;;;;21.40;45.00;;;;;;6313828;27;20681;-54
2022/03/12 07:12:52;;;;;;;;;;;21.50;45.20;;;;;;6311685;27;20007;-52
2022/03/12 07:15:54;;;;;;;;;;;21.00;44.70;;;;;;6311007;27;20889;-55
2022/03/12 07:18:56;;;;;;;;;;;21.10;45.00;;;;;;6309750;27;19934;-54
2022/03/12 07:21:58;;;;;;;;;;;21.00;45.00;;;;;;6311192;27;20054;-52
2022/03/12 07:24:59;;;;;;;;;;;21.70;45.30;;;;;;6292414;27;20583;-55
2022/03/12 07:28:01;;;;;;;;;;;21.00;45.00;;;;;;6308583;27;20188;-53
2022/03/12 07:31:03;;;;;;;;;;;21.30;44.80;;;;;;6310165;27;20057;-56
2022/03/12 07:34:05;;;;;;;;;;;21.60;45.30;;;;;;6310369;27;20394;-55
2022/03/12 07:37:08;;;;;;;;;;;21.20;45.00;;;;;;6310053;27;19927;-51
2022/03/12 07:40:12;;;;;;;;;;;21.30;45.10;;;;;;6311595;27;20198;-53
2022/03/12 07:43:13;;;;;;;;;;;21.30;45.10;;;;;;6312274;27;19927;-53
2022/03/12 07:46:15;;;;;;;;;;;21.00;45.00;;;;;;6307755;27;19931;-52
2022/03/12 07:49:17;;;;;;;;;;;21.40;45.70;;;;;;6308285;27;19927;-53
2022/03/12 07:52:18;;;;;;;;;;;20.90;44.80;;;;;;6309773;27;20068;-55
2022/03/12 07:55:19;;;;;;;;;;;20.90;44.80;;;;;;6311222;27;19932;-57
2022/03/12 07:58:21;;;;;;;;;;;21.00;44.90;;;;;;6317106;27;20247;-55
2022/03/12 08:01:23;;;;;;;;;;;21.10;44.80;;;;;;6318004;27;20045;-52
2022/03/12 08:04:26;;;;;;;;;;;21.40;44.40;;;;;;6321337;27;19931;-53
2022/03/12 08:07:28;;;;;;;;;;;21.00;44.70;;;;;;6309727;27;20220;-56
2022/03/12 08:11:24;;;;;;;;;;;21.00;44.80;;;;;;6325068;27;20835;-55
2022/03/12 08:13:54;;;;;;;;;;;21.20;44.60;;;;;;6307125;27;20045;-56
2022/03/12 08:16:56;;;;;;;;;;;21.70;44.20;;;;;;6313250;27;20189;-53
2022/03/12 08:19:58;;;;;;;;;;;21.10;44.70;;;;;;6311740;27;20262;-57
2022/03/12 08:23:01;;;;;;;;;;;20.90;45.30;;;;;;6314579;27;19958;-55
2022/03/12 08:26:03;;;;;;;;;;;21.20;45.00;;;;;;6321429;27;19962;-52
2022/03/12 08:29:04;;;;;;;;;;;21.00;44.70;;;;;;6313848;27;20212;-54
2022/03/12 08:32:08;;;;;;;;;;;21.30;44.50;;;;;;6314600;27;20246;-54
2022/03/12 08:35:11;;;;;;;;;;;21.70;45.00;;;;;;6316466;27;20721;-54
2022/03/12 08:38:12;;;;;;;;;;;21.10;44.60;;;;;;6302320;27;20351;-54
2022/03/12 08:41:15;;;;;;;;;;;20.80;44.60;;;;;;6313238;27;19939;-56
2022/03/12 08:44:16;;;;;;;;;;;20.90;44.60;;;;;;6315424;27;20737;-54
2022/03/12 08:47:18;;;;;;;;;;;21.80;45.00;;;;;;6310445;27;20129;-53
2022/03/12 08:50:19;;;;;;;;;;;21.10;44.50;;;;;;6312278;27;21027;-52
2022/03/12 08:53:21;;;;;;;;;;;21.00;44.60;;;;;;6313286;27;19938;-54
2022/03/12 08:56:23;;;;;;;;;;;21.40;44.60;;;;;;6310214;27;20886;-53
2022/03/12 08:59:24;;;;;;;;;;;21.70;44.90;;;;;;6314090;27;20209;-54
2022/03/12 09:02:28;;;;;;;;;;;21.70;44.60;;;;;;6317558;27;20012;-51
2022/03/12 09:05:29;;;;;;;;;;;21.60;44.50;;;;;;6321490;27;20301;-53
2022/03/12 09:08:31;;;;;;;;;;;22.10;44.70;;;;;;6317064;27;20807;-54
2022/03/12 09:11:32;;;;;;;;;;;21.20;44.40;;;;;;6313872;27;20576;-54
2022/03/12 09:14:35;;;;;;;;;;;21.50;44.70;;;;;;6317782;27;20330;-52
2022/03/12 09:17:36;;;;;;;;;;;21.50;44.60;;;;;;6324183;27;19932;-54
2022/03/12 09:20:42;;;;;;;;;;;21.40;44.30;;;;;;6329553;27;19974;-53
2022/03/12 09:23:43;;;;;;;;;;;21.30;44.30;;;;;;6327915;27;19947;-53
2022/03/12 09:26:45;;;;;;;;;;;21.30;44.30;;;;;;6319139;27;20030;-55
2022/03/12 09:29:47;;;;;;;;;;;21.60;44.40;;;;;;6320553;27;20212;-54
2022/03/12 09:32:49;;;;;;;;;;;21.60;44.00;;;;;;6319201;27;19967;-51
2022/03/12 09:35:51;;;;;;;;;;;21.70;44.10;;;;;;6328586;27;19923;-55
2022/03/12 09:38:52;;;;;;;;;;;21.40;44.00;;;;;;6309800;27;19927;-52
2022/03/12 09:41:54;;;;;;;;;;;21.20;44.00;;;;;;6324100;27;20786;-56
2022/03/12 09:44:56;;;;;;;;;;;21.60;44.20;;;;;;6328953;27;20063;-54
2022/03/12 09:47:58;;;;;;;;;;;22.00;44.30;;;;;;6327480;27;20513;-52
2022/03/12 09:50:59;;;;;;;;;;;21.80;44.10;;;;;;6319693;27;20097;-52
2022/03/12 09:54:01;;;;;;;;;;;21.70;43.50;;;;;;6315990;27;20052;-55
2022/03/12 09:57:02;;;;;;;;;;;21.80;44.10;;;;;;6316229;27;20725;-53
2022/03/12 10:00:06;;;;;;;;;;;21.90;44.00;;;;;;6315479;27;20003;-54
2022/03/12 10:03:13;;;;;;;;;;;21.90;43.90;;;;;;6315332;27;20666;-52
2022/03/12 10:06:16;;;;;;;;;;;22.20;44.00;;;;;;6314169;27;20528;-53
2022/03/12 10:09:17;;;;;;;;;;;22.00;44.00;;;;;;6314239;27;19958;-57
2022/03/12 10:12:19;;;;;;;;;;;21.60;43.50;;;;;;6313864;27;20865;-52
2022/03/12 10:15:21;;;;;;;;;;;21.90;43.70;;;;;;6314075;27;19927;-54
2022/03/12 10:18:23;;;;;;;;;;;22.20;43.80;;;;;;6305614;27;20842;-54
2022/03/12 10:21:24;;;;;;;;;;;22.20;43.70;;;;;;6313625;27;19939;-55
2022/03/12 10:24:26;;;;;;;;;;;21.70;43.70;;;;;;6313301;27;20165;-51
2022/03/12 10:27:27;;;;;;;;;;;22.10;43.80;;;;;;6315706;27;20244;-53
2022/03/12 10:30:29;;;;;;;;;;;21.80;43.50;;;;;;6316622;27;20401;-56
2022/03/12 10:33:32;;;;;;;;;;;22.20;43.60;;;;;;6312284;27;20315;-53
2022/03/12 10:36:39;;;;;;;;;;;22.50;43.80;;;;;;6296478;27;20038;-56
2022/03/12 10:39:40;;;;;;;;;;;22.40;43.50;;;;;;6324058;27;19959;-50
2022/03/12 10:42:46;;;;;;;;;;;22.00;43.40;;;;;;6322491;27;19963;-54
2022/03/12 10:45:49;;;;;;;;;;;22.00;43.20;;;;;;6313734;27;19992;-53
2022/03/12 10:48:56;;;;;;;;;;;22.00;43.30;;;;;;6295444;27;20425;-56
2022/03/12 10:52:04;;;;;;;;;;;22.20;43.40;;;;;;6321809;27;20388;-55
2022/03/12 10:55:10;;;;;;;;;;;22.20;43.30;;;;;;6321134;27;19954;-55
2022/03/12 10:58:12;;;;;;;;;;;22.30;43.40;;;;;;6310474;27;20295;-52
2022/03/12 11:01:22;;;;;;;;;;;22.30;43.40;;;;;;6314332;27;20077;-55
2022/03/12 11:04:27;;;;;;;;;;;22.00;43.20;;;;;;6313713;27;20038;-54
2022/03/12 11:07:30;;;;;;;;;;;22.40;43.40;;;;;;6293612;27;19931;-55
2022/03/12 11:10:36;;;;;;;;;;;21.90;42.50;;;;;;6310850;27;20368;-53
2022/03/12 11:13:40;;;;;;;;;;;22.50;43.50;;;;;;6313549;27;19935;-51
2022/03/12 11:16:46;;;;;;;;;;;22.00;43.10;;;;;;6313364;27;20049;-54
2022/03/12 11:19:48;;;;;;;;;;;22.60;42.80;;;;;;6309890;27;20497;-55
2022/03/12 11:22:50;;;;;;;;;;;22.20;43.10;;;;;;6313236;27;20335;-54
2022/03/12 11:25:57;;;;;;;;;;;22.20;43.00;;;;;;6296223;27;20447;-57
2022/03/12 11:28:59;;;;;;;;;;;22.40;43.10;;;;;;6320789;27;20353;-57
2022/03/12 11:32:09;;;;;;;;;;;22.70;43.20;;;;;;6313546;27;19931;-54
2022/03/12 11:35:15;;;;;;;;;;;22.50;43.00;;;;;;6312078;27;19931;-53
2022/03/12 11:38:18;;;;;;;;;;;22.90;42.80;;;;;;6300423;27;20230;-53
2022/03/12 11:41:23;;;;;;;;;;;21.90;42.60;;;;;;6296610;27;19927;-53
2022/03/12 11:44:24;;;;;;;;;;;22.30;42.80;;;;;;6318525;27;20824;-53
2022/03/12 11:47:27;;;;;;;;;;;22.50;43.00;;;;;;6316426;27;20049;-55
2022/03/12 11:50:29;;;;;;;;;;;22.20;42.50;;;;;;6302047;27;20334;-55
2022/03/12 11:53:36;;;;;;;;;;;22.50;42.80;;;;;;6321813;27;20510;-54
2022/03/12 11:56:48;;;;;;;;;;;22.70;42.70;;;;;;6314878;27;20446;-53
2022/03/12 11:59:49;;;;;;;;;;;22.40;42.80;;;;;;6318410;27;20302;-53
2022/03/12 12:02:56;;;;;;;;;;;22.30;42.70;;;;;;6315164;27;20382;-55
2022/03/12 12:05:59;;;;;;;;;;;22.50;42.70;;;;;;6318021;27;20222;-55
2022/03/12 12:09:01;;;;;;;;;;;22.90;42.50;;;;;;6319242;27;20020;-53
2022/03/12 12:12:13;;;;;;;;;;;22.60;42.70;;;;;;6317758;27;20375;-55
2022/03/12 12:15:17;;;;;;;;;;;22.30;42.30;;;;;;6297748;27;20359;-54
2022/03/12 12:18:20;;;;;;;;;;;22.60;42.60;;;;;;6314198;27;19931;-53
2022/03/12 12:21:22;;;;;;;;;;;22.40;42.60;;;;;;6309111;27;19927;-52
2022/03/12 12:24:24;;;;;;;;;;;22.30;43.00;;;;;;6317384;27;20784;-53
2022/03/12 12:27:33;;;;;;;;;;;23.30;42.80;;;;;;6311354;27;19965;-51
2022/03/12 12:30:39;;;;;;;;;;;23.00;42.70;;;;;;6291048;27;19938;-56
2022/03/12 12:33:43;;;;;;;;;;;22.40;42.40;;;;;;6309783;27;20445;-52
2022/03/12 12:36:58;;;;;;;;;;;22.70;42.50;;;;;;6310180;27;20365;-54
2022/03/12 12:40:09;;;;;;;;;;;22.60;40.10;;;;;;6307876;27;21174;-52
2022/03/12 12:43:13;;;;;;;;;;;22.90;42.50;;;;;;6293801;27;20230;-55
2022/03/12 12:46:14;;;;;;;;;;;22.50;42.30;;;;;;6310593;27;20305;-58
2022/03/12 12:49:17;;;;;;;;;;;22.50;42.30;;;;;;6312491;27;19960;-53
2022/03/12 12:52:19;;;;;;;;;;;22.60;42.40;;;;;;6307984;27;19938;-56
2022/03/12 12:55:24;;;;;;;;;;;22.90;42.40;;;;;;6290279;27;20643;-56
2022/03/12 12:58:45;;;;;;;;;;;23.00;42.20;;;;;;6308796;27;20311;-51
2022/03/12 13:01:49;;;;;;;;;;;22.80;42.30;;;;;;6285858;27;20096;-56
2022/03/12 13:04:51;;;;;;;;;;;22.90;42.30;;;;;;6288960;27;20179;-55
2022/03/12 13:07:59;;;;;;;;;;;23.20;42.30;;;;;;6307801;27;20474;-54
2022/03/12 13:11:24;;;;;;;;;;;23.20;42.40;;;;;;6307378;27;19927;-57
2022/03/12 13:14:29;;;;;;;;;;;23.00;42.20;;;;;;6311539;27;19932;-55
2022/03/12 13:17:32;;;;;;;;;;;22.60;41.90;;;;;;6312039;27;20074;-54
2022/03/12 13:20:41;;;;;;;;;;;23.20;42.30;;;;;;6307132;27;20373;-56
2022/03/12 13:23:45;;;;;;;;;;;22.70;42.00;;;;;;6305955;27;20369;-54
2022/03/12 13:26:49;;;;;;;;;;;22.90;42.20;;;;;;6291734;27;19959;-55
2022/03/12 13:30:03;;;;;;;;;;;23.10;42.20;;;;;;6305190;27;20460;-53
2022/03/12 13:33:06;;;;;;;;;;;22.70;41.90;;;;;;6306723;27;20469;-51
2022/03/12 13:36:17;;;;;;;;;;;22.70;42.00;;;;;;6309454;27;19931;-50
2022/03/12 13:39:19;;;;;;;;;;;23.10;42.00;;;;;;6297611;27;20191;-54
2022/03/12 13:42:22;;;;;;;;;;;23.20;42.10;;;;;;6309009;27;19938;-51
2022/03/12 13:45:25;;;;;;;;;;;23.30;42.10;;;;;;6308977;27;20256;-53
2022/03/12 13:48:30;;;;;;;;;;;22.80;41.80;;;;;;6307721;27;20089;-54
2022/03/12 13:51:31;;;;;;;;;;;23.10;41.90;;;;;;6307781;27;20094;-53
2022/03/12 13:54:33;;;;;;;;;;;22.80;41.80;;;;;;6305846;27;20274;-50
2022/03/12 13:57:36;;;;;;;;;;;23.30;42.10;;;;;;6310296;27;20381;-54
2022/03/12 14:00:39;;;;;;;;;;;22.90;41.90;;;;;;6302506;27;20417;-53
2022/03/12 14:03:45;;;;;;;;;;;23.10;42.00;;;;;;6284416;27;20797;-55
2022/03/12 14:06:49;;;;;;;;;;;23.20;41.90;;;;;;6284493;27;20735;-53
2022/03/12 14:09:52;;;;;;;;;;;22.80;41.60;;;;;;6287549;27;19998;-54
2022/03/12 14:12:57;;;;;;;;;;;22.80;41.50;;;;;;6300883;27;20452;-52
2022/03/12 14:15:58;;;;;;;;;;;23.20;41.70;;;;;;6302610;27;20433;-57
2022/03/12 14:19:00;;;;;;;;;;;23.00;41.70;;;;;;6307000;27;20417;-53
2022/03/12 14:22:02;;;;;;;;;;;23.30;41.90;;;;;;6308196;27;20385;-53
2022/03/12 14:25:05;;;;;;;;;;;23.30;41.90;;;;;;6308043;27;20274;-56
2022/03/12 14:28:07;;;;;;;;;;;23.00;41.70;;;;;;6305193;27;19938;-53
2022/03/12 14:31:08;;;;;;;;;;;23.30;41.90;;;;;;6304780;27;20345;-52
2022/03/12 14:34:12;;;;;;;;;;;23.20;41.90;;;;;;6293328;27;20636;-53
2022/03/12 14:37:13;;;;;;;;;;;22.90;41.50;;;;;;6285963;27;19939;-54
2022/03/12 14:40:18;;;;;;;;;;;22.90;41.30;;;;;;6304581;27;21460;-55
2022/03/12 14:43:20;;;;;;;;;;;23.30;41.70;;;;;;6302788;27;21188;-52
2022/03/12 14:46:23;;;;;;;;;;;23.00;41.60;;;;;;6298733;27;19931;-56
2022/03/12 14:49:25;;;;;;;;;;;22.90;41.50;;;;;;6304322;27;19927;-52
2022/03/12 14:52:29;;;;;;;;;;;23.20;41.50;;;;;;6284779;27;19967;-52
2022/03/12 14:55:31;;;;;;;;;;;22.80;41.30;;;;;;6301815;27;19953;-52
2022/03/12 14:58:33;;;;;;;;;;;22.90;41.30;;;;;;6299794;27;19985;-53
2022/03/12 15:01:35;;;;;;;;;;;22.90;41.50;;;;;;6302325;27;20385;-56
2022/03/12 15:04:45;;;;;;;;;;;22.90;41.40;;;;;;6303790;27;20435;-54
2022/03/12 15:07:47;;;;;;;;;;;23.00;41.30;;;;;;6312733;27;19927;-52
2022/03/12 15:11:00;;;;;;;;;;;23.20;41.40;;;;;;6309237;27;19927;-55
2022/03/12 15:14:03;;;;;;;;;;;23.40;41.40;;;;;;6285988;27;20025;-56
2022/03/12 15:17:04;;;;;;;;;;;23.10;41.40;;;;;;6309211;27;20286;-53
2022/03/12 15:20:07;;;;;;;;;;;22.90;41.00;;;;;;6299237;27;20413;-55
2022/03/12 15:23:09;;;;;;;;;;;23.10;41.40;;;;;;6302767;27;20130;-51
2022/03/12 15:26:12;;;;;;;;;;;23.00;41.30;;;;;;6303849;27;20312;-56
2022/03/12 15:29:15;;;;;;;;;;;23.20;41.40;;;;;;6304229;27;20204;-55
2022/03/12 15:32:17;;;;;;;;;;;23.20;41.50;;;;;;6297604;27;19931;-54
2022/03/12 15:35:32;;;;;;;;;;;23.30;41.40;;;;;;6307092;27;20041;-55
2022/03/12 15:38:33;;;;;;;;;;;23.20;41.30;;;;;;6309089;27;21100;-55
2022/03/12 15:41:36;;;;;;;;;;;23.40;41.40;;;;;;6301775;27;20196;-56
2022/03/12 15:44:37;;;;;;;;;;;23.70;41.60;;;;;;6299349;27;20038;-54
2022/03/12 15:47:39;;;;;;;;;;;23.20;41.40;;;;;;6300592;27;19967;-57
2022/03/12 15:50:40;;;;;;;;;;;23.10;41.20;;;;;;6299555;27;20026;-57
2022/03/12 15:53:46;;;;;;;;;;;23.10;41.30;;;;;;6281180;27;20659;-54
2022/03/12 15:56:48;;;;;;;;;;;22.90;41.20;;;;;;6300193;27;19938;-52
2022/03/12 15:59:50;;;;;;;;;;;22.90;41.10;;;;;;6300202;27;20634;-52
2022/03/12 16:02:52;;;;;;;;;;;23.20;41.20;;;;;;6293502;27;20218;-55
2022/03/12 16:05:57;;;;;;;;;;;23.10;41.30;;;;;;6301787;27;20869;-55
2022/03/12 16:08:58;;;;;;;;;;;23.10;41.20;;;;;;6292179;27;20179;-53
2022/03/12 16:12:01;;;;;;;;;;;23.00;41.00;;;;;;6291129;27;19935;-51
2022/03/12 16:15:05;;;;;;;;;;;23.40;41.20;;;;;;6294434;27;19931;-53
2022/03/12 16:18:10;;;;;;;;;;;23.60;41.40;;;;;;6295297;27;20182;-54
2022/03/12 16:21:11;;;;;;;;;;;23.00;41.00;;;;;;6293241;27;19931;-54
2022/03/12 16:24:13;;;;;;;;;;;23.50;41.40;;;;;;6283989;27;19937;-56
2022/03/12 16:27:15;;;;;;;;;;;23.10;41.20;;;;;;6296616;27;20330;-56
2022/03/12 16:30:19;;;;;;;;;;;23.30;41.20;;;;;;6302027;27;19931;-53
2022/03/12 16:33:21;;;;;;;;;;;23.50;41.20;;;;;;6284970;27;20042;-53
2022/03/12 16:36:23;;;;;;;;;;;23.00;40.80;;;;;;6306576;27;20026;-56
2022/03/12 16:39:26;;;;;;;;;;;23.30;41.00;;;;;;6304936;27;20494;-55
2022/03/12 16:42:28;;;;;;;;;;;23.30;40.90;;;;;;6303566;27;20301;-55
2022/03/12 16:45:29;;;;;;;;;;;23.40;41.00;;;;;;6290847;27;20009;-54
2022/03/12 16:48:34;;;;;;;;;;;23.00;40.90;;;;;;6307958;27;19952;-55
2022/03/12 16:51:35;;;;;;;;;;;23.20;41.10;;;;;;6301623;27;20013;-56
2022/03/12 16:54:37;;;;;;;;;;;23.10;41.10;;;;;;6306025;27;20165;-57
2022/03/12 16:57:49;;;;;;;;;;;23.00;41.00;;;;;;6308631;27;20469;-50
2022/03/12 17:00:51;;;;;;;;;;;23.20;40.90;;;;;;6311469;27;21195;-54
2022/03/12 17:03:52;;;;;;;;;;;23.40;41.30;;;;;;6310883;27;20011;-54
2022/03/12 17:06:54;;;;;;;;;;;23.30;41.20;;;;;;6310207;27;20244;-54
2022/03/12 17:09:57;;;;;;;;;;;23.00;40.90;;;;;;6307077;27;19970;-52
2022/03/12 17:13:04;;;;;;;;;;;23.20;40.80;;;;;;6307412;27;20808;-54
2022/03/12 17:16:06;;;;;;;;;;;23.50;41.70;;;;;;6311828;27;20193;-52
2022/03/12 17:19:09;;;;;;;;;;;23.10;40.30;;;;;;6310192;27;19938;-53
2022/03/12 17:22:12;;;;;;;;;;;23.20;40.90;;;;;;6308618;27;20882;-56
2022/03/12 17:25:15;;;;;;;;;;;23.30;40.90;;;;;;6289753;27;19937;-52
2022/03/12 17:28:17;;;;;;;;;;;23.50;40.70;;;;;;6307768;27;19931;-53
2022/03/12 17:31:19;;;;;;;;;;;23.20;40.90;;;;;;6302704;27;20321;-54
2022/03/12 17:34:21;;;;;;;;;;;23.20;41.00;;;;;;6306937;27;20036;-55
2022/03/12 17:37:22;;;;;;;;;;;23.10;41.10;;;;;;6305800;27;19962;-56
2022/03/12 17:40:27;;;;;;;;;;;23.30;41.20;;;;;;6312512;27;20130;-54
2022/03/12 17:43:29;;;;;;;;;;;23.40;41.00;;;;;;6308378;27;20056;-57